Norfolk NAS, Virginia
Current Conditions -  °F | °C
As of 10:59 PM on Saturday 20 Dec 2014 (Local Time) from KNGU Reporting Station
Broken Clouds Broken Clouds  
Wind Chill: 36°   Ceiling: 8000
Heat Index: 36°   Visibility: 8mi
Dew Point: 29°   Wind: 0mph
Humidity: 76%   Direction: NA
Pressure: 30.31"   Gusts: NA
Location:  36.93°N, 76.28°W
Report Text: KNGU 210359Z 00000KT 8SM BKN080 02/M02 A3031 RMK AO2 SLP263 T00221017
Loading
Personal Weather Stations






























Interactive Weather Map New forecast layout! Learn more

10-Day Weather Forecast

Advertisements
Track Severe Weather on mobile